Time;durP1;ratioP1;P1;durP2;ratioP2;P2;SDS_P1;SDS_P2;PMS_P1;PMS_P2;Temp;Humidity;BMP_temperature;BMP_pressure;BME280_temperature;BME280_humidity;BME280_pressure;Samples;Min_cycle;Max_cycle;Signal;HPM_P1;HPM_P2
2021/01/06 00:00:29;;;;;;;;;;;;;;;20.15;43.47;101036.25;5076489;28;1182;-50
2021/01/06 00:02:54;;;;;;;;;;;;;;;19.80;43.96;101041.00;5076647;28;768;-51
2021/01/06 00:05:20;;;;;;;;;;;;;;;20.37;43.05;101057.03;5076513;28;823;-50
2021/01/06 00:07:46;;;;;;;;;;;;;;;21.03;41.69;101051.84;5062955;28;1012;-55
2021/01/06 00:10:13;;;;;;;;;;;;;;;20.56;42.73;101062.59;5056293;28;779;-51
2021/01/06 00:12:41;;;;;;;;;;;;;;;20.46;42.63;101058.00;5056215;28;1914;-53
2021/01/06 00:15:07;;;;;;;;;;;;;;;20.10;43.43;101063.91;5056498;28;787;-51
2021/01/06 00:17:32;;;;;;;;;;;;;;;19.71;44.46;101064.75;5056504;28;747;-47
2021/01/06 00:19:58;;;;;;;;;;;;;;;20.54;42.67;101066.78;5056393;28;763;-46
2021/01/06 00:22:23;;;;;;;;;;;;;;;20.86;41.81;101055.09;5056560;28;1021;-49
2021/01/06 00:24:49;;;;;;;;;;;;;;;20.59;42.59;101052.91;5059061;28;1271;-52
2021/01/06 00:27:14;;;;;;;;;;;;;;;20.45;42.72;101056.34;5060230;28;847;-48
2021/01/06 00:29:39;;;;;;;;;;;;;;;19.96;43.95;101055.50;5060535;28;823;-49
2021/01/06 00:32:05;;;;;;;;;;;;;;;19.82;43.71;101066.38;5060133;28;1890;-46
2021/01/06 00:34:30;;;;;;;;;;;;;;;20.24;43.46;101063.22;5066170;28;910;-47
2021/01/06 00:36:56;;;;;;;;;;;;;;;20.93;41.73;101069.38;5074922;28;870;-48
2021/01/06 00:39:21;;;;;;;;;;;;;;;20.51;42.50;101070.97;5080419;28;811;-50
2021/01/06 00:41:48;;;;;;;;;;;;;;;20.42;42.67;101068.00;5079896;28;504;-49
2021/01/06 00:44:14;;;;;;;;;;;;;;;20.22;43.25;101068.22;5080249;28;787;-52
2021/01/06 00:46:39;;;;;;;;;;;;;;;19.75;44.23;101060.31;5079628;28;890;-50
2021/01/06 00:49:05;;;;;;;;;;;;;;;19.97;44.01;101064.59;5078842;28;1326;-51
2021/01/06 00:51:31;;;;;;;;;;;;;;;20.79;42.08;101061.00;5075785;28;1370;-49
2021/01/06 00:53:57;;;;;;;;;;;;;;;20.74;42.19;101063.81;5059584;28;1910;-52
2021/01/06 00:56:26;;;;;;;;;;;;;;;20.50;42.76;101067.34;5078575;28;1155;-51
2021/01/06 00:58:51;;;;;;;;;;;;;;;20.34;42.96;101069.47;5079934;28;831;-49
2021/01/06 01:01:17;;;;;;;;;;;;;;;19.98;43.65;101066.25;5078140;28;1203;-49
2021/01/06 01:03:43;;;;;;;;;;;;;;;19.90;44.08;101064.91;5079452;28;815;-50
2021/01/06 01:06:09;;;;;;;;;;;;;;;19.87;44.07;101070.19;5078066;28;1119;-47
2021/01/06 01:08:34;;;;;;;;;;;;;;;20.08;43.45;101068.09;5059403;28;748;-47
2021/01/06 01:11:00;;;;;;;;;;;;;;;20.01;43.68;101062.91;5076236;28;832;-48
2021/01/06 01:13:25;;;;;;;;;;;;;;;20.79;42.11;101068.44;5079864;28;1910;-52
2021/01/06 01:15:54;;;;;;;;;;;;;;;20.82;41.73;101074.22;5079206;28;858;-49
2021/01/06 01:18:20;;;;;;;;;;;;;;;20.44;42.74;101074.06;5079241;28;802;-48
2021/01/06 01:20:46;;;;;;;;;;;;;;;20.34;42.78;101065.88;5079481;28;823;-49
2021/01/06 01:23:12;;;;;;;;;;;;;;;19.96;43.60;101057.41;5061830;28;961;-47
2021/01/06 01:25:38;;;;;;;;;;;;;;;19.78;44.18;101059.75;5059159;28;775;-48
2021/01/06 01:28:03;;;;;;;;;;;;;;;20.66;42.41;101056.97;5059356;28;878;-48
2021/01/06 01:30:29;;;;;;;;;;;;;;;20.71;41.93;101066.34;5058929;28;810;-50
2021/01/06 01:32:54;;;;;;;;;;;;;;;20.51;42.42;101068.19;5059072;28;1914;-48
2021/01/06 01:35:28;;;;;;;;;;;;;;;20.35;42.51;101071.09;5057855;28;814;-49
2021/01/06 01:37:54;;;;;;;;;;;;;;;19.99;43.44;101076.16;5058389;28;966;-50
2021/01/06 01:40:22;;;;;;;;;;;;;;;20.38;42.98;101077.16;5059219;28;816;-48
2021/01/06 01:42:52;;;;;;;;;;;;;;;20.93;41.42;101076.84;5059123;28;799;-50
2021/01/06 01:45:17;;;;;;;;;;;;;;;20.64;42.08;101069.44;5058551;28;775;-51
2021/01/06 01:47:46;;;;;;;;;;;;;;;20.52;42.43;101067.06;5058921;28;830;-49
2021/01/06 01:50:11;;;;;;;;;;;;;;;20.14;43.07;101064.97;5058874;28;755;-48
2021/01/06 01:52:40;;;;;;;;;;;;;;;19.88;43.97;101072.66;5058054;28;1921;-47
2021/01/06 01:55:06;;;;;;;;;;;;;;;19.60;44.27;101071.47;5061224;28;1124;-47
2021/01/06 01:57:51;;;;;;;;;;;;;;;19.86;44.01;101076.81;5077994;28;788;-49
2021/01/06 02:00:17;;;;;;;;;;;;;;;19.55;44.46;101077.03;5076649;28;1140;-51
2021/01/06 02:03:01;;;;;;;;;;;;;;;20.36;42.76;101074.69;5078774;28;759;-49
2021/01/06 02:05:28;;;;;;;;;;;;;;;20.91;41.35;101068.84;5078690;28;856;-49
2021/01/06 02:08:12;;;;;;;;;;;;;;;20.40;42.58;101070.25;5076994;28;962;-52
2021/01/06 02:10:40;;;;;;;;;;;;;;;20.28;42.64;101078.09;5077943;28;704;-50
2021/01/06 02:13:06;;;;;;;;;;;;;;;19.75;43.86;101073.28;5077031;28;1977;-49
2021/01/06 02:15:34;;;;;;;;;;;;;;;19.89;43.76;101081.75;5078173;28;818;-48
2021/01/06 02:17:59;;;;;;;;;;;;;;;20.64;42.06;101083.25;5077050;28;819;-51
2021/01/06 02:20:26;;;;;;;;;;;;;;;20.73;41.91;101083.44;5078475;28;763;-50
2021/01/06 02:22:51;;;;;;;;;;;;;;;20.43;42.28;101088.97;5063893;28;1013;-54
2021/01/06 02:25:17;;;;;;;;;;;;;;;20.32;42.54;101085.50;5056831;28;1141;-54
2021/01/06 02:27:42;;;;;;;;;;;;;;;19.89;43.52;101092.81;5057084;28;826;-50
2021/01/06 02:30:08;;;;;;;;;;;;;;;19.70;44.20;101092.63;5056617;28;759;-48
2021/01/06 02:32:34;;;;;;;;;;;;;;;20.56;42.31;101095.75;5056620;28;1972;-50
2021/01/06 02:34:59;;;;;;;;;;;;;;;21.00;40.97;101099.44;5056832;28;793;-53
2021/01/06 02:37:25;;;;;;;;;;;;;;;20.47;42.41;101097.53;5057561;28;958;-52
2021/01/06 02:39:51;;;;;;;;;;;;;;;20.29;42.36;101101.84;5056598;28;776;-52
2021/01/06 02:42:16;;;;;;;;;;;;;;;20.08;43.24;101109.50;5058150;28;787;-44
2021/01/06 02:44:44;;;;;;;;;;;;;;;19.62;44.40;101110.63;5056590;28;796;-50
2021/01/06 02:47:09;;;;;;;;;;;;;;;20.51;42.37;101118.75;5057293;28;748;-45
2021/01/06 02:49:35;;;;;;;;;;;;;;;20.98;41.00;101118.25;5056856;28;748;-50
2021/01/06 02:52:03;;;;;;;;;;;;;;;20.59;41.90;101116.44;5057680;28;1913;-49
2021/01/06 02:54:29;;;;;;;;;;;;;;;20.27;42.60;101112.34;5073317;28;843;-51
2021/01/06 02:56:55;;;;;;;;;;;;;;;19.97;43.27;101111.50;5076871;28;1106;-49
2021/01/06 02:59:21;;;;;;;;;;;;;;;19.90;43.56;101111.00;5076880;28;843;-50
2021/01/06 03:01:46;;;;;;;;;;;;;;;20.83;41.58;101111.78;5076328;28;1031;-46
2021/01/06 03:04:13;;;;;;;;;;;;;;;20.79;41.61;101105.22;5076202;28;744;-49
2021/01/06 03:06:43;;;;;;;;;;;;;;;20.50;41.96;101108.78;5075667;28;986;-51
2021/01/06 03:09:28;;;;;;;;;;;;;;;20.32;42.38;101104.81;5076499;28;775;-53
2021/01/06 03:11:53;;;;;;;;;;;;;;;19.89;43.35;101109.34;5077231;28;851;-49
2021/01/06 03:14:19;;;;;;;;;;;;;;;19.81;43.87;101113.53;5076750;28;1978;-48
2021/01/06 03:16:44;;;;;;;;;;;;;;;20.75;41.58;101120.72;5076115;28;751;-44
2021/01/06 03:19:10;;;;;;;;;;;;;;;20.77;41.29;101121.25;5076944;28;778;-50
2021/01/06 03:21:36;;;;;;;;;;;;;;;20.36;42.32;101121.66;5071950;28;946;-47
2021/01/06 03:24:01;;;;;;;;;;;;;;;20.21;42.35;101122.59;5063679;28;812;-49
2021/01/06 03:26:27;;;;;;;;;;;;;;;19.96;43.19;101127.25;5075506;28;891;-48
2021/01/06 03:28:52;;;;;;;;;;;;;;;20.27;42.57;101131.66;5076697;28;802;-49
2021/01/06 03:31:21;;;;;;;;;;;;;;;21.00;41.06;101136.19;5075582;28;815;-51
2021/01/06 03:34:05;;;;;;;;;;;;;;;20.52;41.78;101136.13;5075598;28;1971;-51
2021/01/06 03:36:32;;;;;;;;;;;;;;;20.55;42.01;101143.00;5073386;28;981;-53
2021/01/06 03:39:03;;;;;;;;;;;;;;;20.25;42.55;101145.78;5055522;28;807;-49
2021/01/06 03:41:29;;;;;;;;;;;;;;;19.81;43.52;101141.97;5056732;28;843;-49
2021/01/06 03:43:58;;;;;;;;;;;;;;;20.34;42.35;101154.25;5055295;28;859;-45
2021/01/06 03:46:32;;;;;;;;;;;;;;;20.90;41.04;101141.84;5055640;28;506;-48
2021/01/06 03:49:13;;;;;;;;;;;;;;;20.38;42.43;101144.28;5055570;28;820;-51
2021/01/06 03:51:56;;;;;;;;;;;;;;;20.32;42.52;101153.72;5054885;28;990;-50
2021/01/06 03:54:37;;;;;;;;;;;;;;;19.95;43.14;101146.84;5056721;28;1910;-48
2021/01/06 03:57:03;;;;;;;;;;;;;;;19.79;43.76;101160.75;5074781;28;1258;-48
2021/01/06 03:59:29;;;;;;;;;;;;;;;20.67;41.71;101157.25;5076223;28;915;-48
2021/01/06 04:01:56;;;;;;;;;;;;;;;20.75;41.49;101159.41;5059493;28;1099;-49
2021/01/06 04:04:29;;;;;;;;;;;;;;;20.47;42.25;101164.63;5056813;28;747;-51
2021/01/06 04:06:55;;;;;;;;;;;;;;;20.46;41.93;101162.97;5054543;28;935;-52
2021/01/06 04:09:26;;;;;;;;;;;;;;;19.83;43.14;101169.28;5056644;28;779;-49
2021/01/06 04:11:57;;;;;;;;;;;;;;;20.49;41.92;101161.56;5055312;28;744;-48
2021/01/06 04:14:22;;;;;;;;;;;;;;;20.92;40.92;101161.72;5054534;28;1973;-50
2021/01/06 04:16:47;;;;;;;;;;;;;;;20.69;41.35;101157.81;5056434;28;855;-51
2021/01/06 04:19:13;;;;;;;;;;;;;;;20.52;41.65;101161.00;5056194;28;828;-47
2021/01/06 04:21:38;;;;;;;;;;;;;;;20.12;42.72;101163.00;5055641;28;957;-49
2021/01/06 04:24:04;;;;;;;;;;;;;;;19.77;43.62;101179.50;5056297;28;744;-51
2021/01/06 04:26:29;;;;;;;;;;;;;;;20.52;41.94;101169.28;5056123;28;800;-49
2021/01/06 04:28:55;;;;;;;;;;;;;;;20.91;40.96;101167.53;5054692;28;780;-49
2021/01/06 04:31:21;;;;;;;;;;;;;;;20.50;41.63;101166.00;5056568;28;819;-52
2021/01/06 04:33:51;;;;;;;;;;;;;;;20.46;41.61;101153.88;5055891;28;1961;-47
2021/01/06 04:36:20;;;;;;;;;;;;;;;20.16;42.39;101162.13;5055669;28;993;-50
2021/01/06 04:38:47;;;;;;;;;;;;;;;19.86;43.31;101157.66;5055158;28;827;-49
2021/01/06 04:41:15;;;;;;;;;;;;;;;20.38;42.24;101169.13;5055990;28;728;-48
2021/01/06 04:43:43;;;;;;;;;;;;;;;21.13;40.53;101169.78;5056137;28;736;-48
2021/01/06 04:46:09;;;;;;;;;;;;;;;20.58;41.47;101164.53;5055017;28;812;-49
2021/01/06 04:48:53;;;;;;;;;;;;;;;20.36;42.06;101163.09;5056125;28;811;-52
2021/01/06 04:51:20;;;;;;;;;;;;;;;19.92;43.16;101161.22;5055410;28;930;-52
2021/01/06 04:53:52;;;;;;;;;;;;;;;19.79;43.41;101160.75;5055906;28;1968;-48
2021/01/06 04:56:29;;;;;;;;;;;;;;;20.51;41.79;101162.94;5069568;28;1131;-45
2021/01/06 04:59:14;;;;;;;;;;;;;;;20.85;40.95;101159.28;5055736;28;736;-45
2021/01/06 05:01:48;;;;;;;;;;;;;;;20.51;41.71;101162.94;5055733;28;1044;-48
2021/01/06 05:04:26;;;;;;;;;;;;;;;20.15;42.55;101157.72;5055998;28;886;-50
2021/01/06 05:06:51;;;;;;;;;;;;;;;19.86;43.11;101160.44;5055897;28;926;-52
2021/01/06 05:09:21;;;;;;;;;;;;;;;20.26;42.42;101157.63;5057820;28;803;-45
2021/01/06 05:12:13;;;;;;;;;;;;;;;21.05;40.61;101168.47;5059570;28;834;-52
2021/01/06 05:14:45;;;;;;;;;;;;;;;20.74;41.08;101170.78;5057355;28;1010;-50
2021/01/06 05:17:11;;;;;;;;;;;;;;;20.40;41.67;101175.19;5058384;28;820;-46
2021/01/06 05:19:36;;;;;;;;;;;;;;;20.10;42.42;101171.56;5058049;28;779;-48
2021/01/06 05:22:02;;;;;;;;;;;;;;;19.85;43.05;101169.00;5059313;28;934;-50
2021/01/06 05:24:31;;;;;;;;;;;;;;;20.35;41.55;101161.44;5059439;28;787;-47
2021/01/06 05:27:14;;;;;;;;;;;;;;;21.03;39.68;101165.19;5059175;28;728;-50
2021/01/06 05:29:43;;;;;;;;;;;;;;;21.53;38.33;101160.16;5058023;28;811;-47
2021/01/06 05:32:15;;;;;;;;;;;;;;;20.80;39.76;101164.06;5059586;28;1977;-49
2021/01/06 05:34:40;;;;;;;;;;;;;;;20.56;40.60;101162.06;5058976;28;947;-49
2021/01/06 05:37:06;;;;;;;;;;;;;;;19.96;41.91;101162.28;5058843;28;942;-48
2021/01/06 05:39:31;;;;;;;;;;;;;;;19.87;41.96;101162.09;5058154;28;815;-58
2021/01/06 05:41:57;;;;;;;;;;;;;;;20.64;40.78;101157.84;5058778;28;759;-51
2021/01/06 05:44:23;;;;;;;;;;;;;;;20.79;40.09;101160.47;5059052;28;811;-50
2021/01/06 05:46:48;;;;;;;;;;;;;;;20.57;40.70;101162.91;5059044;28;879;-46
2021/01/06 05:49:23;;;;;;;;;;;;;;;20.29;41.33;101151.56;5058568;28;819;-59
2021/01/06 05:51:53;;;;;;;;;;;;;;;20.03;41.95;101157.25;5057751;28;990;-46
2021/01/06 05:54:21;;;;;;;;;;;;;;;19.71;42.71;101153.03;5058856;28;1910;-49
2021/01/06 05:57:09;;;;;;;;;;;;;;;20.63;40.86;101142.38;5076001;28;1246;-48
2021/01/06 05:59:39;;;;;;;;;;;;;;;20.71;40.46;101150.06;5078896;28;771;-50
2021/01/06 06:02:04;;;;;;;;;;;;;;;20.43;41.29;101137.88;5077532;28;1211;-49
2021/01/06 06:04:48;;;;;;;;;;;;;;;19.98;42.12;101154.56;5078519;28;854;-51
2021/01/06 06:07:17;;;;;;;;;;;;;;;19.61;42.90;101162.19;5069590;28;1009;-50
2021/01/06 06:09:59;;;;;;;;;;;;;;;19.93;42.26;101160.13;5058538;28;847;-45
2021/01/06 06:12:30;;;;;;;;;;;;;;;20.97;40.07;101172.72;5058082;28;1906;-48
2021/01/06 06:15:13;;;;;;;;;;;;;;;20.47;41.18;101178.44;5058735;28;856;-49
2021/01/06 06:17:53;;;;;;;;;;;;;;;20.39;41.19;101175.50;5058661;28;811;-50
2021/01/06 06:20:37;;;;;;;;;;;;;;;19.80;42.62;101189.19;5057281;28;843;-48
2021/01/06 06:23:22;;;;;;;;;;;;;;;19.61;42.96;101191.72;5058161;28;998;-53
2021/01/06 06:25:53;;;;;;;;;;;;;;;19.85;42.72;101196.59;5057944;28;748;-55
2021/01/06 06:28:26;;;;;;;;;;;;;;;20.78;40.48;101197.53;5058367;28;827;-47
2021/01/06 06:30:58;;;;;;;;;;;;;;;20.50;41.10;101196.38;5057060;28;862;-50
2021/01/06 06:33:27;;;;;;;;;;;;;;;20.27;41.67;101197.94;5057983;28;1977;-50
2021/01/06 06:35:54;;;;;;;;;;;;;;;19.92;42.16;101206.22;5058175;28;712;-49
2021/01/06 06:38:19;;;;;;;;;;;;;;;19.61;43.12;101202.75;5056684;28;951;-49
2021/01/06 06:40:48;;;;;;;;;;;;;;;20.46;41.37;101204.41;5056465;28;808;-47
2021/01/06 06:43:31;;;;;;;;;;;;;;;20.73;40.48;101211.38;5058030;28;740;-54
2021/01/06 06:45:59;;;;;;;;;;;;;;;20.32;41.51;101212.53;5057794;28;728;-48
2021/01/06 06:48:36;;;;;;;;;;;;;;;20.14;41.64;101216.00;5056380;28;820;-49
2021/01/06 06:51:13;;;;;;;;;;;;;;;19.75;42.58;101225.03;5057703;28;743;-51
2021/01/06 06:53:42;;;;;;;;;;;;;;;19.91;42.69;101218.34;5077534;28;1977;-54
2021/01/06 06:56:19;;;;;;;;;;;;;;;20.84;40.59;101214.88;5077326;28;1257;-47
2021/01/06 06:58:45;;;;;;;;;;;;;;;20.47;40.91;101225.41;5077867;28;743;-47
2021/01/06 07:01:12;;;;;;;;;;;;;;;20.33;41.40;101224.44;5077483;28;1035;-46
2021/01/06 07:03:38;;;;;;;;;;;;;;;20.13;41.77;101229.00;5075740;28;910;-46
2021/01/06 07:06:06;;;;;;;;;;;;;;;19.58;42.74;101222.66;5077502;28;763;-51
2021/01/06 07:08:31;;;;;;;;;;;;;;;20.45;41.46;101227.63;5073542;28;1293;-47
2021/01/06 07:11:03;;;;;;;;;;;;;;;20.80;40.46;101228.47;5076813;28;846;-49
2021/01/06 07:13:29;;;;;;;;;;;;;;;20.33;41.25;101228.00;5065536;28;1913;-47
2021/01/06 07:15:55;;;;;;;;;;;;;;;20.39;41.12;101228.78;5056120;28;760;-48
2021/01/06 07:18:35;;;;;;;;;;;;;;;19.81;42.63;101223.91;5076229;28;834;-48
2021/01/06 07:21:06;;;;;;;;;;;;;;;19.52;43.44;101232.88;5076935;28;799;-48
2021/01/06 07:23:35;;;;;;;;;;;;;;;20.53;41.10;101228.94;5057639;28;1001;-47
2021/01/06 07:26:20;;;;;;;;;;;;;;;20.65;40.83;101232.16;5055577;28;817;-50
2021/01/06 07:28:46;;;;;;;;;;;;;;;20.32;41.60;101239.34;5057531;28;776;-47
2021/01/06 07:31:19;;;;;;;;;;;;;;;20.12;41.91;101235.63;5056968;28;779;-48
2021/01/06 07:33:45;;;;;;;;;;;;;;;19.58;43.00;101236.44;5056376;28;1914;-48
2021/01/06 07:36:15;;;;;;;;;;;;;;;19.82;42.91;101229.19;5055414;28;1365;-48
2021/01/06 07:38:40;;;;;;;;;;;;;;;20.82;40.61;101231.75;5069335;28;828;-49
2021/01/06 07:41:06;;;;;;;;;;;;;;;20.50;40.99;101213.78;5075258;28;784;-48
2021/01/06 07:43:32;;;;;;;;;;;;;;;20.42;41.42;101228.19;5075243;28;819;-52
2021/01/06 07:45:58;;;;;;;;;;;;;;;20.12;41.96;101227.34;5075565;28;724;-54
2021/01/06 07:48:32;;;;;;;;;;;;;;;19.70;42.69;101228.66;5076231;28;740;-50
2021/01/06 07:51:01;;;;;;;;;;;;;;;20.40;41.63;101230.44;5074505;28;831;-50
2021/01/06 07:53:26;;;;;;;;;;;;;;;20.82;40.51;101229.00;5070593;28;1901;-50
2021/01/06 07:55:55;;;;;;;;;;;;;;;20.54;41.05;101229.75;5076674;28;1142;-52
2021/01/06 07:58:27;;;;;;;;;;;;;;;20.26;41.70;101218.38;5075231;28;867;-52
2021/01/06 08:00:55;;;;;;;;;;;;;;;19.88;42.55;101221.69;5076276;28;1024;-51
2021/01/06 08:03:39;;;;;;;;;;;;;;;19.67;42.94;101218.19;5076130;28;830;-49
2021/01/06 08:06:05;;;;;;;;;;;;;;;20.55;40.98;101220.38;5076651;28;798;-49
2021/01/06 08:08:39;;;;;;;;;;;;;;;20.60;40.98;101217.56;5056533;28;1021;-50
2021/01/06 08:11:05;;;;;;;;;;;;;;;20.44;41.36;101219.63;5075145;28;820;-53
2021/01/06 08:13:34;;;;;;;;;;;;;;;20.20;41.53;101216.78;5076462;28;1909;-48
2021/01/06 08:16:06;;;;;;;;;;;;;;;19.86;42.59;101217.56;5076295;28;775;-51
2021/01/06 08:18:31;;;;;;;;;;;;;;;19.89;42.86;101219.75;5076137;28;1002;-48
2021/01/06 08:21:03;;;;;;;;;;;;;;;20.81;40.67;101229.28;5076472;28;798;-54
2021/01/06 08:23:47;;;;;;;;;;;;;;;20.54;40.89;101232.53;5074372;28;942;-49
2021/01/06 08:26:15;;;;;;;;;;;;;;;20.43;41.41;101240.91;5075545;28;855;-49
2021/01/06 08:28:40;;;;;;;;;;;;;;;20.12;41.90;101241.13;5075572;28;816;-48
2021/01/06 08:31:10;;;;;;;;;;;;;;;19.78;42.70;101241.88;5076304;28;830;-48
2021/01/06 08:33:53;;;;;;;;;;;;;;;20.60;40.94;101231.38;5075879;28;1909;-47
2021/01/06 08:36:22;;;;;;;;;;;;;;;20.74;40.80;101242.63;5074870;28;938;-51
2021/01/06 08:38:48;;;;;;;;;;;;;;;20.44;41.43;101237.03;5056097;28;795;-52
2021/01/06 08:41:20;;;;;;;;;;;;;;;20.15;41.84;101228.69;5056207;28;788;-54
2021/01/06 08:43:45;;;;;;;;;;;;;;;19.90;42.22;101218.66;5055647;28;930;-50
2021/01/06 08:46:41;;;;;;;;;;;;;;;20.24;41.83;101213.16;5058928;28;787;-46
2021/01/06 08:49:10;;;;;;;;;;;;;;;20.94;40.02;101211.19;5051286;28;1361;-50
2021/01/06 08:51:35;;;;;;;;;;;;;;;20.36;41.47;101223.84;5059546;28;986;-50
2021/01/06 08:54:13;;;;;;;;;;;;;;;20.35;41.21;101223.00;5064978;28;1971;-52
2021/01/06 08:56:38;;;;;;;;;;;;;;;19.87;42.46;101221.97;5078510;28;1151;-50
2021/01/06 08:59:04;;;;;;;;;;;;;;;19.88;42.56;101218.09;5078653;28;736;-49
2021/01/06 09:01:32;;;;;;;;;;;;;;;20.79;40.59;101215.75;5077766;28;1095;-47
2021/01/06 09:03:57;;;;;;;;;;;;;;;20.55;41.27;101212.06;5078228;28;798;-47
2021/01/06 09:06:22;;;;;;;;;;;;;;;20.50;41.33;101208.25;5077819;28;1013;-47
2021/01/06 09:08:51;;;;;;;;;;;;;;;20.17;41.82;101201.59;5059422;28;799;-54
2021/01/06 09:11:18;;;;;;;;;;;;;;;19.77;43.05;101212.63;5059477;28;727;-55
2021/01/06 09:13:57;;;;;;;;;;;;;;;20.49;41.39;101206.59;5059552;28;1968;-52
2021/01/06 09:16:49;;;;;;;;;;;;;;;20.67;41.35;101195.94;5058365;28;779;-51
2021/01/06 09:19:17;;;;;;;;;;;;;;;20.48;41.70;101204.97;5057355;28;1127;-50
2021/01/06 09:21:42;;;;;;;;;;;;;;;20.18;42.18;101195.78;5057926;28;1006;-47
2021/01/06 09:24:12;;;;;;;;;;;;;;;19.95;42.85;101204.78;5057981;28;748;-47
2021/01/06 09:26:38;;;;;;;;;;;;;;;20.81;41.04;101202.47;5063168;28;821;-47
2021/01/06 09:29:05;;;;;;;;;;;;;;;20.72;40.94;101197.84;5078180;28;807;-52
2021/01/06 09:31:31;;;;;;;;;;;;;;;20.39;41.85;101187.34;5077711;28;804;-50
2021/01/06 09:33:56;;;;;;;;;;;;;;;20.24;41.93;101190.25;5077517;28;1906;-48
2021/01/06 09:36:23;;;;;;;;;;;;;;;19.63;43.09;101190.34;5076120;28;946;-49
2021/01/06 09:38:49;;;;;;;;;;;;;;;20.51;41.77;101190.56;5058645;28;811;-49
2021/01/06 09:41:26;;;;;;;;;;;;;;;20.97;40.34;101192.06;5059439;28;843;-51
2021/01/06 09:44:07;;;;;;;;;;;;;;;20.56;41.35;101178.63;5077423;28;828;-49
2021/01/06 09:46:34;;;;;;;;;;;;;;;20.12;42.37;101180.41;5077022;28;883;-50
2021/01/06 09:49:04;;;;;;;;;;;;;;;19.80;42.71;101172.63;5077474;28;850;-52
2021/01/06 09:51:29;;;;;;;;;;;;;;;20.58;41.46;101172.81;5074639;28;914;-50
2021/01/06 09:53:55;;;;;;;;;;;;;;;21.09;40.35;101169.53;5057132;28;1910;-48
2021/01/06 09:56:22;;;;;;;;;;;;;;;20.64;41.28;101168.91;5053750;28;1120;-49
2021/01/06 09:58:48;;;;;;;;;;;;;;;20.58;41.34;101164.53;5077600;28;799;-53
2021/01/06 10:01:19;;;;;;;;;;;;;;;19.92;42.17;101170.34;5076536;28;1004;-54
2021/01/06 10:03:45;;;;;;;;;;;;;;;20.21;42.21;101160.47;5077688;28;776;-55
2021/01/06 10:06:14;;;;;;;;;;;;;;;20.98;40.69;101165.25;5077211;28;1001;-52
2021/01/06 10:08:41;;;;;;;;;;;;;;;20.74;41.12;101157.75;5073397;28;1461;-50
2021/01/06 10:11:19;;;;;;;;;;;;;;;20.36;41.73;101163.09;5059249;28;871;-49
2021/01/06 10:14:03;;;;;;;;;;;;;;;20.05;42.40;101156.97;5078489;28;1905;-51
2021/01/06 10:16:48;;;;;;;;;;;;;;;19.91;42.87;101156.81;5077769;28;863;-49
2021/01/06 10:19:32;;;;;;;;;;;;;;;20.95;40.50;101157.53;5077137;28;823;-55
2021/01/06 10:22:14;;;;;;;;;;;;;;;20.41;41.76;101146.47;5071290;28;922;-50
2021/01/06 10:24:48;;;;;;;;;;;;;;;20.24;42.10;101144.13;5056871;28;787;-47
2021/01/06 10:27:32;;;;;;;;;;;;;;;19.74;42.97;101140.59;5058248;28;902;-48
2021/01/06 10:29:57;;;;;;;;;;;;;;;20.18;42.33;101139.75;5058201;28;763;-47
2021/01/06 10:32:32;;;;;;;;;;;;;;;20.94;40.51;101139.31;5056936;28;1914;-52
2021/01/06 10:35:30;;;;;;;;;;;;;;;20.56;41.39;101134.44;5057930;28;788;-48
2021/01/06 10:37:56;;;;;;;;;;;;;;;20.09;42.40;101131.28;5034523;28;1188;-47
2021/01/06 10:40:33;;;;;;;;;;;;;;;19.68;43.49;101123.25;5058024;28;728;-46
2021/01/06 10:43:19;;;;;;;;;;;;;;;20.71;41.48;101130.72;5057797;28;747;-49
2021/01/06 10:45:44;;;;;;;;;;;;;;;20.70;40.90;101120.78;5071371;28;1064;-50
2021/01/06 10:48:17;;;;;;;;;;;;;;;20.41;41.95;101121.63;5077922;28;838;-50
2021/01/06 10:50:43;;;;;;;;;;;;;;;20.12;42.24;101124.38;5076588;28;1258;-49
2021/01/06 10:53:12;;;;;;;;;;;;;;;19.70;43.63;101122.97;5077197;28;1980;-52
2021/01/06 10:55:37;;;;;;;;;;;;;;;19.82;43.27;101116.03;5077904;28;1138;-52
2021/01/06 10:58:03;;;;;;;;;;;;;;;20.76;41.13;101114.09;5077421;28;767;-48
2021/01/06 11:00:38;;;;;;;;;;;;;;;20.83;40.94;101100.75;5077284;28;1202;-49
2021/01/06 11:03:16;;;;;;;;;;;;;;;20.50;41.72;101100.50;5076099;28;1318;-48
2021/01/06 11:05:44;;;;;;;;;;;;;;;20.08;42.50;101095.69;5076225;28;779;-53
2021/01/06 11:08:09;;;;;;;;;;;;;;;19.83;43.48;101094.78;5075446;28;1022;-54
2021/01/06 11:10:54;;;;;;;;;;;;;;;20.67;41.42;101090.94;5077354;28;736;-51
2021/01/06 11:13:19;;;;;;;;;;;;;;;20.58;41.58;101087.16;5077479;28;1969;-52
2021/01/06 11:16:03;;;;;;;;;;;;;;;20.42;42.07;101090.09;5077201;28;843;-51
2021/01/06 11:18:28;;;;;;;;;;;;;;;19.86;42.65;101076.81;5077069;28;867;-51
2021/01/06 11:21:41;;;;;;;;;;;;;;;19.92;43.08;101067.38;5077328;28;772;-50
2021/01/06 11:24:33;;;;;;;;;;;;;;;21.07;40.50;101066.72;4995418;28;1374;-52
2021/01/06 11:26:58;;;;;;;;;;;;;;;20.55;41.55;101065.66;5056034;28;1079;-52
2021/01/06 11:29:25;;;;;;;;;;;;;;;20.27;42.04;101065.41;5055650;28;743;-53
2021/01/06 11:31:57;;;;;;;;;;;;;;;19.76;42.96;101067.47;5055817;28;748;-54
2021/01/06 11:34:22;;;;;;;;;;;;;;;20.36;42.22;101066.41;5057357;28;2043;-55
2021/01/06 11:36:51;;;;;;;;;;;;;;;21.11;40.43;101067.78;5056742;28;993;-49
2021/01/06 11:39:35;;;;;;;;;;;;;;;20.48;41.93;101055.78;5056876;28;807;-48
2021/01/06 11:42:04;;;;;;;;;;;;;;;20.42;41.94;101051.44;5056930;28;764;-51
2021/01/06 11:44:43;;;;;;;;;;;;;;;19.86;42.65;101038.19;5056486;28;859;-56
2021/01/06 11:47:24;;;;;;;;;;;;;;;20.17;42.88;101049.75;5055553;28;791;-52
2021/01/06 11:49:54;;;;;;;;;;;;;;;20.99;40.73;101042.50;5056240;28;772;-55
2021/01/06 11:52:49;;;;;;;;;;;;;;;20.50;41.84;101042.50;5056192;28;1981;-52
2021/01/06 11:55:23;;;;;;;;;;;;;;;20.26;42.19;101041.66;5052961;28;1720;-54
2021/01/06 11:57:55;;;;;;;;;;;;;;;19.81;43.14;101041.78;5076813;28;763;-54
2021/01/06 12:00:23;;;;;;;;;;;;;;;20.57;41.93;101038.56;5076077;28;1107;-53
2021/01/06 12:02:59;;;;;;;;;;;;;;;21.19;40.46;101036.66;5076721;28;763;-53
2021/01/06 12:05:25;;;;;;;;;;;;;;;21.43;39.95;101026.66;5077203;28;804;-52
2021/01/06 12:08:09;;;;;;;;;;;;;;;20.80;41.37;101023.09;5061991;28;997;-49
2021/01/06 12:10:53;;;;;;;;;;;;;;;20.45;42.07;101019.63;5056507;28;840;-50
2021/01/06 12:13:18;;;;;;;;;;;;;;;19.90;42.71;101018.00;5056601;28;1971;-48
2021/01/06 12:16:04;;;;;;;;;;;;;;;20.19;42.86;101025.44;5056185;28;816;-55
2021/01/06 12:18:47;;;;;;;;;;;;;;;21.17;40.58;101019.56;5055373;28;988;-50
2021/01/06 12:21:30;;;;;;;;;;;;;;;20.62;41.91;101024.69;5054599;28;1017;-56
2021/01/06 12:24:02;;;;;;;;;;;;;;;20.35;42.38;101017.81;5055238;28;784;-52
2021/01/06 12:26:42;;;;;;;;;;;;;;;19.65;43.42;101017.06;5055112;28;1168;-49
2021/01/06 12:29:09;;;;;;;;;;;;;;;20.34;42.64;101021.69;5054827;28;855;-47
2021/01/06 12:31:48;;;;;;;;;;;;;;;20.92;41.34;101036.50;5055476;28;796;-57
2021/01/06 12:34:42;;;;;;;;;;;;;;;20.54;41.88;101025.31;5055138;28;1973;-57
2021/01/06 12:37:11;;;;;;;;;;;;;;;20.28;42.29;101025.63;5046998;28;1577;-58
2021/01/06 12:39:37;;;;;;;;;;;;;;;19.71;43.40;101020.59;5056239;28;736;-53
2021/01/06 12:42:14;;;;;;;;;;;;;;;20.33;42.66;101020.06;5056163;28;830;-48
2021/01/06 12:44:43;;;;;;;;;;;;;;;20.99;41.14;101025.91;5056022;28;719;-49
2021/01/06 12:47:24;;;;;;;;;;;;;;;20.51;42.14;101018.47;5055108;28;1331;-59
2021/01/06 12:49:56;;;;;;;;;;;;;;;20.26;42.32;101016.81;5055623;28;779;-60
2021/01/06 12:52:25;;;;;;;;;;;;;;;19.68;43.29;101010.16;5054302;28;1906;-48
2021/01/06 12:55:16;;;;;;;;;;;;;;;19.70;44.05;101012.63;5057454;28;1146;-48
2021/01/06 12:57:43;;;;;;;;;;;;;;;20.82;41.40;101018.94;5066242;28;1172;-51
2021/01/06 13:00:29;;;;;;;;;;;;;;;20.66;41.54;101025.75;5074500;28;1097;-52
2021/01/06 13:03:14;;;;;;;;;;;;;;;20.41;42.54;101033.22;5068363;28;1446;-48
2021/01/06 13:05:40;;;;;;;;;;;;;;;19.80;43.28;101024.44;5074487;28;859;-55
2021/01/06 13:08:06;;;;;;;;;;;;;;;19.98;43.47;101019.31;5074671;28;958;-54
2021/01/06 13:10:32;;;;;;;;;;;;;;;20.93;41.24;101025.16;5074754;28;827;-55